createdAt,value
2019-05-26T00:01:07.769Z,79.82
2019-05-26T00:03:36.410Z,80.48
2019-05-26T00:06:05.134Z,82.25
2019-05-26T00:08:33.819Z,84.54
2019-05-26T00:11:02.548Z,84.31
2019-05-26T00:13:31.183Z,86.10
2019-05-26T00:16:00.044Z,86.30
2019-05-26T00:18:28.671Z,85.91
2019-05-26T00:20:57.306Z,84.82
2019-05-26T00:23:25.916Z,83.54
2019-05-26T00:25:54.541Z,84.91
2019-05-26T00:28:23.169Z,86.05
2019-05-26T00:30:51.872Z,83.62
2019-05-26T00:33:20.513Z,82.12
2019-05-26T00:35:49.155Z,82.67
2019-05-26T00:38:17.838Z,83.47
2019-05-26T00:40:46.707Z,85.43
2019-05-26T00:43:15.469Z,85.24
2019-05-26T00:45:44.242Z,85.77
2019-05-26T00:48:13.019Z,85.43
2019-05-26T00:50:41.726Z,88.08
2019-05-26T00:53:10.495Z,85.89
2019-05-26T00:55:39.210Z,84.73
2019-05-26T00:58:07.912Z,83.54
2019-05-26T01:00:41.093Z,83.78
2019-05-26T01:03:10.292Z,84.67
2019-05-26T01:05:39.214Z,87.32
2019-05-26T01:08:08.131Z,87.95
2019-05-26T01:10:36.947Z,86.61
2019-05-26T01:13:06.096Z,86.77
2019-05-26T01:15:35.121Z,87.14
2019-05-26T01:18:03.945Z,86.18
2019-05-26T01:20:32.648Z,87.78
2019-05-26T01:23:01.278Z,88.85
2019-05-26T01:25:30.062Z,89.09
2019-05-26T01:27:58.728Z,89.21
2019-05-26T01:30:37.793Z,88.71
2019-05-26T01:33:06.756Z,89.26
2019-05-26T01:35:38.972Z,87.95
2019-05-26T01:38:22.527Z,88.76
2019-05-26T01:40:40.034Z,89.88
2019-05-26T01:43:09.124Z,90.12
2019-05-26T01:45:37.844Z,89.95
2019-05-26T01:48:07.195Z,90.14
2019-05-26T01:50:35.988Z,89.92
2019-05-26T01:53:05.067Z,89.72
2019-05-26T01:55:33.853Z,89.73
2019-05-26T01:58:02.531Z,92.37
2019-05-26T02:00:31.234Z,93.82
2019-05-26T02:02:59.982Z,94.00
2019-05-26T02:05:28.676Z,94.90
2019-05-26T02:07:57.375Z,95.47
2019-05-26T02:10:26.070Z,96.27
2019-05-26T02:12:54.700Z,97.11
2019-05-26T02:15:23.897Z,97.65
2019-05-26T02:17:52.595Z,97.69
2019-05-26T02:20:21.506Z,96.69
2019-05-26T02:22:50.206Z,96.54
2019-05-26T02:25:19.304Z,96.95
2019-05-26T02:27:47.968Z,97.02
2019-05-26T02:30:16.971Z,96.30
2019-05-26T02:32:45.719Z,94.80
2019-05-26T02:35:14.796Z,95.19
2019-05-26T02:37:43.911Z,95.04
2019-05-26T02:40:13.601Z,96.13
2019-05-26T02:42:42.235Z,95.47
2019-05-26T02:45:12.928Z,95.35
2019-05-26T02:47:41.646Z,94.04
2019-05-26T02:50:10.789Z,94.22
2019-05-26T02:52:39.407Z,94.47
2019-05-26T02:55:09.021Z,96.10
2019-05-26T02:57:37.757Z,97.10
2019-05-26T03:00:07.120Z,98.04
2019-05-26T03:02:35.748Z,97.72
2019-05-26T03:05:05.415Z,98.46
2019-05-26T03:07:34.138Z,98.77
2019-05-26T03:10:03.987Z,98.59
2019-05-26T03:12:34.176Z,98.17
2019-05-26T03:15:03.843Z,98.65
2019-05-26T03:17:34.862Z,98.39
2019-05-26T03:20:05.635Z,98.95
2019-05-26T03:22:34.734Z,99.43
2019-05-26T03:25:04.732Z,99.97
2019-05-26T03:27:33.525Z,99.22
2019-05-26T03:30:02.315Z,99.40
2019-05-26T03:32:30.929Z,99.28
2019-05-26T03:35:00.135Z,100.00
2019-05-26T03:37:28.849Z,100.00
2019-05-26T03:39:57.572Z,99.08
2019-05-26T03:42:26.242Z,99.05
2019-05-26T03:44:54.896Z,99.03
2019-05-26T03:47:23.534Z,97.88
2019-05-26T03:49:52.160Z,97.95
2019-05-26T03:52:20.830Z,96.92
2019-05-26T03:54:49.467Z,96.92
2019-05-26T03:57:18.101Z,97.49
2019-05-26T03:59:46.816Z,98.49
2019-05-26T04:02:15.470Z,98.60
2019-05-26T04:04:44.180Z,99.06
2019-05-26T04:07:12.826Z,99.37
2019-05-26T04:09:41.465Z,99.14
2019-05-26T04:12:10.387Z,100.00
2019-05-26T04:14:39.010Z,100.00
2019-05-26T04:17:07.770Z,100.00
2019-05-26T04:19:36.420Z,100.00
2019-05-26T04:22:05.161Z,100.00
2019-05-26T04:24:33.901Z,100.00
2019-05-26T04:27:02.586Z,100.00
2019-05-26T04:29:31.214Z,100.00
2019-05-26T04:32:02.148Z,100.00
2019-05-26T04:34:30.231Z,100.00
2019-05-26T04:36:58.894Z,100.00
2019-05-26T04:39:27.517Z,100.00
2019-05-26T04:41:56.180Z,100.00
2019-05-26T04:44:24.834Z,100.00
2019-05-26T04:46:53.472Z,99.56
2019-05-26T04:49:22.122Z,98.90
2019-05-26T04:51:50.771Z,98.74
2019-05-26T04:54:19.389Z,97.87
2019-05-26T04:56:48.090Z,96.60
2019-05-26T04:59:16.716Z,97.01
2019-05-26T05:01:45.386Z,97.53
2019-05-26T05:04:14.104Z,96.89
2019-05-26T05:06:42.722Z,96.10
2019-05-26T05:09:11.447Z,95.10
2019-05-26T05:11:40.153Z,94.86
2019-05-26T05:14:08.847Z,94.44
2019-05-26T05:16:37.558Z,93.84
2019-05-26T05:19:06.327Z,93.04
2019-05-26T05:21:35.054Z,92.82
2019-05-26T05:24:03.713Z,92.51
2019-05-26T05:26:32.366Z,91.16
2019-05-26T05:29:01.138Z,90.99
2019-05-26T05:31:29.738Z,91.63
2019-05-26T05:33:58.506Z,91.02
2019-05-26T05:36:27.203Z,90.35
2019-05-26T05:38:55.947Z,90.05
2019-05-26T05:41:24.611Z,89.46
2019-05-26T05:43:53.268Z,88.33
2019-05-26T05:46:21.996Z,87.22
2019-05-26T05:48:50.669Z,84.98
2019-05-26T05:51:19.299Z,83.88
2019-05-26T05:53:47.982Z,84.23
2019-05-26T05:56:16.612Z,83.32
2019-05-26T05:58:45.357Z,81.91
2019-05-26T06:01:13.984Z,81.74
2019-05-26T06:03:42.728Z,81.57
2019-05-26T06:06:11.471Z,80.49
2019-05-26T06:08:40.188Z,80.42
2019-05-26T06:11:16.512Z,80.50
2019-05-26T06:13:39.335Z,80.23
2019-05-26T06:16:07.971Z,79.23
2019-05-26T06:18:36.619Z,79.23
2019-05-26T06:21:05.364Z,79.52
2019-05-26T06:23:36.865Z,77.12
2019-05-26T06:26:05.531Z,77.12
2019-05-26T06:28:34.257Z,76.59
2019-05-26T06:31:02.969Z,77.99
2019-05-26T06:33:31.620Z,78.94
2019-05-26T06:36:00.272Z,77.81
2019-05-26T06:38:29.021Z,77.22
2019-05-26T06:40:57.810Z,77.83
2019-05-26T06:43:26.743Z,76.91
2019-05-26T06:45:55.495Z,75.47
2019-05-26T06:48:26.754Z,75.47
2019-05-26T06:50:54.852Z,73.68
2019-05-26T06:53:23.624Z,73.63
2019-05-26T06:55:52.416Z,73.63
2019-05-26T06:58:21.212Z,72.06
2019-05-26T07:00:50.115Z,71.99
2019-05-26T07:03:18.906Z,71.25
2019-05-26T07:05:47.581Z,71.45
2019-05-26T07:08:16.288Z,69.91
2019-05-26T07:10:45.011Z,69.14
2019-05-26T07:13:13.736Z,69.14
2019-05-26T07:15:42.409Z,68.39
2019-05-26T07:18:11.144Z,70.55
2019-05-26T07:20:39.855Z,70.55
2019-05-26T07:23:09.263Z,68.98
2019-05-26T07:25:38.198Z,67.57
2019-05-26T07:28:06.911Z,67.91
2019-05-26T07:30:35.670Z,68.17
2019-05-26T07:33:04.492Z,67.84
2019-05-26T07:35:33.467Z,68.33
2019-05-26T07:38:02.174Z,68.33
2019-05-26T07:40:30.889Z,68.25
2019-05-26T07:42:59.639Z,68.25
2019-05-26T07:45:28.348Z,68.25
2019-05-26T07:47:57.165Z,68.10
2019-05-26T07:50:26.083Z,64.33
2019-05-26T07:52:54.836Z,64.33
2019-05-26T07:55:23.532Z,65.98
2019-05-26T07:57:52.189Z,65.34
2019-05-26T08:00:21.454Z,63.36
2019-05-26T08:02:50.128Z,63.56
2019-05-26T08:05:18.830Z,63.56
2019-05-26T08:08:11.638Z,63.33
2019-05-26T08:10:27.541Z,61.83
2019-05-26T08:12:56.258Z,61.83
2019-05-26T08:15:25.354Z,61.58
2019-05-26T08:17:53.997Z,60.04
2019-05-26T08:20:22.808Z,60.04
2019-05-26T08:23:44.131Z,62.54
2019-05-26T08:26:12.716Z,60.25
2019-05-26T08:28:41.435Z,59.75
2019-05-26T08:31:13.254Z,61.31
2019-05-26T08:33:40.594Z,61.11
2019-05-26T08:36:09.223Z,61.98
2019-05-26T08:38:37.891Z,60.95
2019-05-26T08:41:06.702Z,59.81
2019-05-26T08:43:35.426Z,62.06
2019-05-26T08:46:04.397Z,61.30
2019-05-26T08:48:33.055Z,60.06
2019-05-26T08:51:01.976Z,60.86
2019-05-26T08:53:30.708Z,58.34
2019-05-26T08:55:59.377Z,58.91
2019-05-26T08:58:29.448Z,57.80
2019-05-26T09:00:58.326Z,57.73
2019-05-26T09:03:27.057Z,57.73
2019-05-26T09:05:55.776Z,58.51
2019-05-26T09:08:24.504Z,58.38
2019-05-26T09:10:53.278Z,56.54
2019-05-26T09:13:21.918Z,58.69
2019-05-26T09:15:50.599Z,58.35
2019-05-26T09:18:19.289Z,57.82
2019-05-26T09:20:47.980Z,57.10
2019-05-26T09:23:18.621Z,57.10
2019-05-26T09:25:47.367Z,57.22
2019-05-26T09:28:16.199Z,58.02
2019-05-26T09:30:44.928Z,56.20
2019-05-26T09:33:13.779Z,56.69
2019-05-26T09:35:42.566Z,55.55
2019-05-26T09:38:11.264Z,56.51
2019-05-26T09:40:40.022Z,56.75
2019-05-26T09:43:15.991Z,55.96
2019-05-26T09:45:39.300Z,55.64
2019-05-26T09:48:07.925Z,56.20
2019-05-26T09:50:36.592Z,56.09
2019-05-26T09:53:05.386Z,54.20
2019-05-26T09:55:34.118Z,55.59
2019-05-26T09:58:02.749Z,54.23
2019-05-26T10:00:31.486Z,53.07
2019-05-26T10:03:00.130Z,52.56
2019-05-26T10:05:28.910Z,51.78
2019-05-26T10:07:57.557Z,53.54
2019-05-26T10:10:26.652Z,52.97
2019-05-26T10:12:55.433Z,53.19
2019-05-26T10:15:24.212Z,53.12
2019-05-26T10:17:52.837Z,52.49
2019-05-26T10:20:21.929Z,52.90
2019-05-26T10:22:50.767Z,54.27
2019-05-26T10:25:19.537Z,52.94
2019-05-26T10:27:48.211Z,52.51
2019-05-26T10:30:18.794Z,53.53
2019-05-26T10:32:47.418Z,51.67
2019-05-26T10:35:16.789Z,53.53
2019-05-26T10:37:45.447Z,52.99
2019-05-26T10:40:14.863Z,52.90
2019-05-26T10:42:43.464Z,51.52
2019-05-26T10:45:12.413Z,51.55
2019-05-26T10:47:41.089Z,51.79
2019-05-26T10:50:10.201Z,50.08
2019-05-26T10:52:39.232Z,51.45
2019-05-26T10:55:08.135Z,50.46
2019-05-26T10:57:36.954Z,51.03
2019-05-26T11:00:06.902Z,52.12
2019-05-26T11:02:35.584Z,50.28
2019-05-26T11:05:04.373Z,51.31
2019-05-26T11:07:33.024Z,50.64
2019-05-26T11:10:01.785Z,50.05
2019-05-26T11:12:30.496Z,49.09
2019-05-26T11:14:59.164Z,50.75
2019-05-26T11:17:27.806Z,49.64
2019-05-26T11:19:56.542Z,49.80
2019-05-26T11:22:25.364Z,51.19
2019-05-26T11:24:53.934Z,50.00
2019-05-26T11:27:22.602Z,49.36
2019-05-26T11:29:51.307Z,48.24
2019-05-26T11:32:20.016Z,45.69
2019-05-26T11:35:00.694Z,47.88
2019-05-26T11:37:19.259Z,48.09
2019-05-26T11:39:47.896Z,46.94
2019-05-26T11:42:16.529Z,46.28
2019-05-26T11:44:45.159Z,46.68
2019-05-26T11:47:13.872Z,46.51
2019-05-26T11:49:42.692Z,45.83
2019-05-26T11:52:11.358Z,46.19
2019-05-26T11:54:39.998Z,46.02
2019-05-26T11:57:08.805Z,46.99
2019-05-26T11:59:37.435Z,48.05
2019-05-26T12:02:06.154Z,45.93
2019-05-26T12:04:34.851Z,45.82
2019-05-26T12:07:04.449Z,45.36
2019-05-26T12:09:33.326Z,45.27
2019-05-26T12:12:01.949Z,47.32
2019-05-26T12:14:35.006Z,45.29
2019-05-26T12:17:00.911Z,46.75
2019-05-26T12:19:29.623Z,46.75
2019-05-26T12:21:58.238Z,46.34
2019-05-26T12:24:26.997Z,44.70
2019-05-26T12:26:55.692Z,45.68
2019-05-26T12:29:24.419Z,48.17
2019-05-26T12:31:53.070Z,45.71
2019-05-26T12:34:21.761Z,45.38
2019-05-26T12:36:50.469Z,44.66
2019-05-26T12:39:19.250Z,42.91
2019-05-26T12:41:48.005Z,43.06
2019-05-26T12:44:16.772Z,45.11
2019-05-26T12:46:45.507Z,43.83
2019-05-26T12:49:14.300Z,44.42
2019-05-26T12:51:43.019Z,43.87
2019-05-26T12:54:14.496Z,43.83
2019-05-26T12:56:43.139Z,44.02
2019-05-26T12:59:14.507Z,45.19
2019-05-26T13:01:43.156Z,44.64
2019-05-26T13:04:11.797Z,43.66
2019-05-26T13:06:42.601Z,42.57
2019-05-26T13:09:12.189Z,45.04
2019-05-26T13:11:40.956Z,44.00
2019-05-26T13:14:09.613Z,43.64
2019-05-26T13:16:38.351Z,42.89
2019-05-26T13:19:07.106Z,44.22
2019-05-26T13:21:35.919Z,42.16
2019-05-26T13:24:04.897Z,41.61
2019-05-26T13:26:33.547Z,42.24
2019-05-26T13:29:02.178Z,43.34
2019-05-26T13:31:30.894Z,42.70
2019-05-26T13:33:59.614Z,43.62
2019-05-26T13:36:28.324Z,41.38
2019-05-26T13:38:56.993Z,40.97
2019-05-26T13:41:25.816Z,40.58
2019-05-26T13:43:54.516Z,41.21
2019-05-26T13:46:23.164Z,41.29
2019-05-26T13:48:51.863Z,42.12
2019-05-26T13:51:20.538Z,41.28
2019-05-26T13:53:49.235Z,41.50
2019-05-26T13:56:17.937Z,41.57
2019-05-26T13:58:46.588Z,42.66
2019-05-26T14:01:15.219Z,42.97
2019-05-26T14:03:43.957Z,42.24
2019-05-26T14:06:12.669Z,40.88
2019-05-26T14:08:41.471Z,41.53
2019-05-26T14:11:10.102Z,42.21
2019-05-26T14:13:39.399Z,40.51
2019-05-26T14:16:08.125Z,42.27
2019-05-26T14:18:37.248Z,41.25
2019-05-26T14:21:06.014Z,40.16
2019-05-26T14:23:35.988Z,38.53
2019-05-26T14:26:04.697Z,40.90
2019-05-26T14:28:33.337Z,39.60
2019-05-26T14:31:01.981Z,38.72
2019-05-26T14:33:30.646Z,37.30
2019-05-26T14:35:59.292Z,36.66
2019-05-26T14:38:42.292Z,35.94
2019-05-26T14:40:58.337Z,35.76
2019-05-26T14:43:26.979Z,37.15
2019-05-26T14:45:55.639Z,37.67
2019-05-26T14:48:24.432Z,36.59
2019-05-26T14:50:53.129Z,37.24
2019-05-26T14:53:22.388Z,36.71
2019-05-26T14:55:51.100Z,36.56
2019-05-26T14:58:19.778Z,35.24
2019-05-26T15:00:48.426Z,35.77
2019-05-26T15:03:17.059Z,36.22
2019-05-26T15:05:45.669Z,36.37
2019-05-26T15:08:14.428Z,36.09
2019-05-26T15:10:43.127Z,34.27
2019-05-26T15:13:11.910Z,37.40
2019-05-26T15:15:41.467Z,35.76
2019-05-26T15:18:10.128Z,37.40
2019-05-26T15:20:38.840Z,35.33
2019-05-26T15:23:07.486Z,35.62
2019-05-26T15:25:36.323Z,36.73
2019-05-26T15:28:05.199Z,35.23
2019-05-26T15:30:33.822Z,35.56
2019-05-26T15:33:02.445Z,37.27
2019-05-26T15:35:31.102Z,36.56
2019-05-26T15:37:59.797Z,37.72
2019-05-26T15:40:29.114Z,37.80
2019-05-26T15:42:57.734Z,37.42
2019-05-26T15:45:26.449Z,36.55
2019-05-26T15:47:55.217Z,36.41
2019-05-26T15:50:23.938Z,35.76
2019-05-26T15:52:52.561Z,35.17
2019-05-26T15:55:21.291Z,35.23
2019-05-26T15:57:49.962Z,35.23
2019-05-26T16:00:18.797Z,37.23
2019-05-26T16:02:47.535Z,37.73
2019-05-26T16:05:16.374Z,34.99
2019-05-26T16:07:45.062Z,35.25
2019-05-26T16:10:13.941Z,35.54
2019-05-26T16:12:42.574Z,33.89
2019-05-26T16:15:11.617Z,36.44
2019-05-26T16:17:40.439Z,36.61
2019-05-26T16:20:09.435Z,34.43
2019-05-26T16:22:38.198Z,33.85
2019-05-26T16:25:07.198Z,34.70
2019-05-26T16:27:36.009Z,36.17
2019-05-26T16:30:07.033Z,33.78
2019-05-26T16:32:35.660Z,34.81
2019-05-26T16:35:05.127Z,35.75
2019-05-26T16:37:33.801Z,32.84
2019-05-26T16:40:02.546Z,34.36
2019-05-26T16:42:31.245Z,34.58
2019-05-26T16:44:59.979Z,33.24
2019-05-26T16:47:28.617Z,35.42
2019-05-26T16:49:57.632Z,33.30
2019-05-26T16:52:26.309Z,36.05
2019-05-26T16:54:55.043Z,34.46
2019-05-26T16:57:23.759Z,34.09
2019-05-26T16:59:52.460Z,34.51
2019-05-26T17:02:21.212Z,34.79
2019-05-26T17:04:49.833Z,35.53
2019-05-26T17:07:18.495Z,36.02
2019-05-26T17:09:47.178Z,36.56
2019-05-26T17:12:15.811Z,39.21
2019-05-26T17:14:44.445Z,37.55
2019-05-26T17:17:15.073Z,38.02
2019-05-26T17:19:43.476Z,38.17
2019-05-26T17:22:12.168Z,38.79
2019-05-26T17:24:40.865Z,39.55
2019-05-26T17:27:09.595Z,40.83
2019-05-26T17:29:38.378Z,40.96
2019-05-26T17:32:07.095Z,41.07
2019-05-26T17:34:35.808Z,41.71
2019-05-26T17:37:04.560Z,43.07
2019-05-26T17:39:33.241Z,43.16
2019-05-26T17:42:01.937Z,43.42
2019-05-26T17:44:30.665Z,43.50
2019-05-26T17:46:59.379Z,43.80
2019-05-26T17:49:28.013Z,45.28
2019-05-26T17:51:56.738Z,43.51
2019-05-26T17:54:25.364Z,44.38
2019-05-26T17:56:54.085Z,44.43
2019-05-26T17:59:22.805Z,45.08
2019-05-26T18:01:51.543Z,43.94
2019-05-26T18:04:20.170Z,44.20
2019-05-26T18:06:48.831Z,44.19
2019-05-26T18:09:17.515Z,45.22
2019-05-26T18:11:46.185Z,45.56
2019-05-26T18:14:14.880Z,44.15
2019-05-26T18:16:43.550Z,45.70
2019-05-26T18:19:12.330Z,45.27
2019-05-26T18:21:41.148Z,46.16
2019-05-26T18:24:09.842Z,46.34
2019-05-26T18:26:38.474Z,45.58
2019-05-26T18:29:07.177Z,46.70
2019-05-26T18:31:36.085Z,46.81
2019-05-26T18:34:04.926Z,48.16
2019-05-26T18:36:33.575Z,47.81
2019-05-26T18:39:02.195Z,46.72
2019-05-26T18:41:30.812Z,47.67
2019-05-26T18:43:59.559Z,47.38
2019-05-26T18:46:28.328Z,48.80
2019-05-26T18:48:56.991Z,47.55
2019-05-26T18:51:25.628Z,48.77
2019-05-26T18:53:54.272Z,48.22
2019-05-26T18:56:22.924Z,48.85
2019-05-26T18:58:51.697Z,49.38
2019-05-26T19:01:20.418Z,49.67
2019-05-26T19:03:49.121Z,49.92
2019-05-26T19:06:17.923Z,49.77
2019-05-26T19:08:46.657Z,49.81
2019-05-26T19:11:15.410Z,50.07
2019-05-26T19:13:44.718Z,48.44
2019-05-26T19:16:17.075Z,49.70
2019-05-26T19:18:48.055Z,50.02
2019-05-26T19:21:18.834Z,50.83
2019-05-26T19:24:09.658Z,51.82
2019-05-26T19:26:41.643Z,52.23
2019-05-26T19:29:21.855Z,51.31
2019-05-26T19:31:57.363Z,50.57
2019-05-26T19:34:28.320Z,50.19
2019-05-26T19:36:57.837Z,50.80
2019-05-26T19:39:29.676Z,51.34
2019-05-26T19:42:03.245Z,51.67
2019-05-26T19:44:35.865Z,52.31
2019-05-26T19:47:08.789Z,52.58
2019-05-26T19:49:39.965Z,52.60
2019-05-26T19:52:31.042Z,52.99
2019-05-26T19:55:02.721Z,52.91
2019-05-26T19:57:37.707Z,53.53
2019-05-26T20:00:14.684Z,53.04
2019-05-26T20:03:00.112Z,53.41
2019-05-26T20:05:29.562Z,53.46
2019-05-26T20:08:21.272Z,53.58
2019-05-26T20:10:55.649Z,53.54
2019-05-26T20:13:25.785Z,53.14
2019-05-26T20:15:58.079Z,53.67
2019-05-26T20:18:30.286Z,53.78
2019-05-26T20:21:03.533Z,54.05
2019-05-26T20:23:32.705Z,54.32
2019-05-26T20:26:03.553Z,54.53
2019-05-26T20:28:36.378Z,55.16
2019-05-26T20:31:09.234Z,55.62
2019-05-26T20:33:38.498Z,55.94
2019-05-26T20:36:11.003Z,55.89
2019-05-26T20:38:40.482Z,56.34
2019-05-26T20:41:13.299Z,55.08
2019-05-26T20:43:43.872Z,55.88
2019-05-26T20:46:12.994Z,56.69
2019-05-26T20:48:51.043Z,57.00
2019-05-26T20:51:21.594Z,56.89
2019-05-26T20:53:50.415Z,57.66
2019-05-26T20:56:20.625Z,57.57
2019-05-26T20:58:59.382Z,58.42
2019-05-26T21:01:33.751Z,58.65
2019-05-26T21:04:03.387Z,58.78
2019-05-26T21:06:34.333Z,58.81
2019-05-26T21:09:15.792Z,59.17
2019-05-26T21:11:57.448Z,59.37
2019-05-26T21:14:28.823Z,60.15
2019-05-26T21:17:03.494Z,60.38
2019-05-26T21:19:34.499Z,60.34
2019-05-26T21:22:04.860Z,60.65
2019-05-26T21:24:37.110Z,60.46
2019-05-26T21:27:12.041Z,60.48
2019-05-26T21:29:46.979Z,60.89
2019-05-26T21:32:17.621Z,61.25
2019-05-26T21:34:50.857Z,61.59
2019-05-26T21:37:23.984Z,61.80
2019-05-26T21:40:03.469Z,62.08
2019-05-26T21:42:35.368Z,62.59
2019-05-26T21:45:13.872Z,62.54
2019-05-26T21:47:48.903Z,62.85
2019-05-26T21:50:17.886Z,63.07
2019-05-26T21:52:55.546Z,62.88
2019-05-26T21:55:25.444Z,63.07
2019-05-26T21:57:56.342Z,65.39
2019-05-26T22:00:33.927Z,65.81
2019-05-26T22:03:06.195Z,65.83
2019-05-26T22:05:35.821Z,65.84
2019-05-26T22:08:10.478Z,65.59
2019-05-26T22:10:44.131Z,65.83
2019-05-26T22:13:17.375Z,65.84
2019-05-26T22:15:47.022Z,65.78
2019-05-26T22:18:15.725Z,65.99
2019-05-26T22:20:44.420Z,66.98
2019-05-26T22:23:13.163Z,67.84
2019-05-26T22:25:41.867Z,67.26
2019-05-26T22:28:14.614Z,67.26
2019-05-26T22:30:49.721Z,67.54
2019-05-26T22:33:29.662Z,67.84
2019-05-26T22:36:09.216Z,68.06
2019-05-26T22:38:39.037Z,68.40
2019-05-26T22:41:09.775Z,68.01
2019-05-26T22:43:38.875Z,68.57
2019-05-26T22:46:11.586Z,69.60
2019-05-26T22:49:17.858Z,69.01
2019-05-26T22:51:51.063Z,69.38
2019-05-26T22:54:36.365Z,69.38
2019-05-26T22:57:07.018Z,69.79
2019-05-26T22:59:37.364Z,69.79
2019-05-26T23:02:09.646Z,69.67
2019-05-26T23:04:41.566Z,70.04
2019-05-26T23:07:10.159Z,70.83
2019-05-26T23:09:38.857Z,70.52
2019-05-26T23:12:07.592Z,70.52
2019-05-26T23:14:36.362Z,70.45
2019-05-26T23:17:05.230Z,70.49
2019-05-26T23:19:33.919Z,69.69
2019-05-26T23:22:02.613Z,69.69
2019-05-26T23:24:31.594Z,70.09
2019-05-26T23:27:00.485Z,70.06
2019-05-26T23:29:29.284Z,70.16
2019-05-26T23:31:57.920Z,70.16
2019-05-26T23:34:26.579Z,70.90
2019-05-26T23:36:55.287Z,71.51
2019-05-26T23:39:23.910Z,71.13
2019-05-26T23:41:52.719Z,70.96
2019-05-26T23:44:21.363Z,70.96
2019-05-26T23:46:50.018Z,70.83
2019-05-26T23:49:18.733Z,70.94
2019-05-26T23:51:47.377Z,70.94
2019-05-26T23:54:16.043Z,71.38
2019-05-26T23:56:44.708Z,71.39
2019-05-26T23:59:13.399Z,71.58
